KNXF

MCOLF Camp Pendleton (Red Beach) Airport

Oceanside, California, USA
METAR KNXF 191656Z AUTO 21007KT 9SM -RA CLR 24/19 A2995 RMK AO2 RAB05E15B38 SLP227 T02440189 PNO
Observed Flight Rules
Aug-19 @ 16:56 UTC (18 minutes ago) Visual Flight Rules
Wind Visibility Clouds Conditions
210° at 7 knots 9 miles
  • Clear skies
  • Light Rain
Temperatures Readings
Current 24°C / 75°F
Dewpoint 19°C / 66°F
Humidity 74%
Altimeter 29.95" Hg
Pressure 1022.7 hPa
Elevation 27
METAR KNXF 191656Z AUTO 21007KT 9SM -RA CLR 24/19 A2995 RMK AO2 RAB05E15B38 SLP227 T02440189 PNO
Observed Flight Rules
Aug-19 @ 16:56 UTC
(18 minutes ago)
VFR
Wind Visibility
210° at 7 knots 9 miles
Clouds
  • Clear skies
Conditions
  • Light Rain
Temperature Dewpoint
24°C / 75°F 19°C / 66°F
Humidity Altimeter Pressure
74% 29.95" Hg 1022.7 hPa